sensor_id;sensor_type;location;lat;lon;timestamp;temperature;humidity
33741;DHT22;20065;48.380;10.892;2023-04-24T00:01:55;12.00;99.90
33741;DHT22;20065;48.380;10.892;2023-04-24T00:04:42;12.00;99.90
33741;DHT22;20065;48.380;10.892;2023-04-24T00:07:30;11.90;99.90
33741;DHT22;20065;48.380;10.892;2023-04-24T00:10:16;11.80;99.90
33741;DHT22;20065;48.380;10.892;2023-04-24T00:13:04;11.70;99.90
33741;DHT22;20065;48.380;10.892;2023-04-24T00:15:50;11.70;99.90
33741;DHT22;20065;48.380;10.892;2023-04-24T00:18:36;11.60;99.90
33741;DHT22;20065;48.380;10.892;2023-04-24T00:21:23;11.50;99.90
33741;DHT22;20065;48.380;10.892;2023-04-24T00:24:11;11.50;99.90
33741;DHT22;20065;48.380;10.892;2023-04-24T00:26:57;11.40;99.90
33741;DHT22;20065;48.380;10.892;2023-04-24T00:29:44;11.40;99.90
33741;DHT22;20065;48.380;10.892;2023-04-24T00:32:30;11.40;99.90
33741;DHT22;20065;48.380;10.892;2023-04-24T00:35:16;11.40;99.90
33741;DHT22;20065;48.380;10.892;2023-04-24T00:38:02;11.40;99.90
33741;DHT22;20065;48.380;10.892;2023-04-24T00:40:49;11.30;99.90
33741;DHT22;20065;48.380;10.892;2023-04-24T00:43:36;11.30;99.90
33741;DHT22;20065;48.380;10.892;2023-04-24T00:46:22;11.30;99.90
33741;DHT22;20065;48.380;10.892;2023-04-24T00:49:08;11.30;99.90
33741;DHT22;20065;48.380;10.892;2023-04-24T00:51:54;11.30;99.90
33741;DHT22;20065;48.380;10.892;2023-04-24T00:54:41;11.30;99.90
33741;DHT22;20065;48.380;10.892;2023-04-24T00:57:27;11.30;99.90
33741;DHT22;20065;48.380;10.892;2023-04-24T01:00:14;11.40;99.90
33741;DHT22;20065;48.380;10.892;2023-04-24T01:03:05;11.40;99.90
33741;DHT22;20065;48.380;10.892;2023-04-24T01:05:54;11.40;99.90
33741;DHT22;20065;48.380;10.892;2023-04-24T01:08:41;11.40;99.90
33741;DHT22;20065;48.380;10.892;2023-04-24T01:11:27;11.40;99.90
33741;DHT22;20065;48.380;10.892;2023-04-24T01:14:14;11.40;99.90
33741;DHT22;20065;48.380;10.892;2023-04-24T01:17:00;11.40;99.90
33741;DHT22;20065;48.380;10.892;2023-04-24T01:19:47;11.30;99.90
33741;DHT22;20065;48.380;10.892;2023-04-24T01:22:34;11.40;99.90
33741;DHT22;20065;48.380;10.892;2023-04-24T01:25:20;11.50;99.90
33741;DHT22;20065;48.380;10.892;2023-04-24T01:28:07;11.70;99.90
33741;DHT22;20065;48.380;10.892;2023-04-24T01:30:53;11.70;99.90
33741;DHT22;20065;48.380;10.892;2023-04-24T01:33:43;11.80;99.90
33741;DHT22;20065;48.380;10.892;2023-04-24T01:36:30;11.80;99.90
33741;DHT22;20065;48.380;10.892;2023-04-24T01:39:18;11.70;99.90
33741;DHT22;20065;48.380;10.892;2023-04-24T01:42:07;11.60;99.90
33741;DHT22;20065;48.380;10.892;2023-04-24T01:44:53;11.50;99.90
33741;DHT22;20065;48.380;10.892;2023-04-24T01:47:40;11.40;99.90
33741;DHT22;20065;48.380;10.892;2023-04-24T01:50:27;11.40;99.90
33741;DHT22;20065;48.380;10.892;2023-04-24T01:53:16;11.40;99.90
33741;DHT22;20065;48.380;10.892;2023-04-24T01:56:02;11.30;99.90
33741;DHT22;20065;48.380;10.892;2023-04-24T01:58:50;11.30;99.90
33741;DHT22;20065;48.380;10.892;2023-04-24T02:01:38;11.30;99.90
33741;DHT22;20065;48.380;10.892;2023-04-24T02:04:25;11.20;99.90
33741;DHT22;20065;48.380;10.892;2023-04-24T02:07:11;11.20;99.90
33741;DHT22;20065;48.380;10.892;2023-04-24T02:09:58;11.10;99.90
33741;DHT22;20065;48.380;10.892;2023-04-24T02:12:44;11.00;99.90
33741;DHT22;20065;48.380;10.892;2023-04-24T02:15:30;11.00;99.90
33741;DHT22;20065;48.380;10.892;2023-04-24T02:18:16;11.00;99.90
33741;DHT22;20065;48.380;10.892;2023-04-24T02:21:02;11.00;99.90
33741;DHT22;20065;48.380;10.892;2023-04-24T02:23:49;11.00;99.90
33741;DHT22;20065;48.380;10.892;2023-04-24T02:26:35;11.00;99.90
33741;DHT22;20065;48.380;10.892;2023-04-24T02:29:21;10.90;99.90
33741;DHT22;20065;48.380;10.892;2023-04-24T02:32:09;11.00;99.90
33741;DHT22;20065;48.380;10.892;2023-04-24T02:34:58;11.00;99.90
33741;DHT22;20065;48.380;10.892;2023-04-24T02:37:45;11.00;99.90
33741;DHT22;20065;48.380;10.892;2023-04-24T02:40:31;11.00;99.90
33741;DHT22;20065;48.380;10.892;2023-04-24T02:43:18;11.00;99.90
33741;DHT22;20065;48.380;10.892;2023-04-24T02:46:04;11.00;99.90
33741;DHT22;20065;48.380;10.892;2023-04-24T02:48:50;11.00;99.90
33741;DHT22;20065;48.380;10.892;2023-04-24T02:51:36;11.00;99.90
33741;DHT22;20065;48.380;10.892;2023-04-24T02:54:26;11.00;99.90
33741;DHT22;20065;48.380;10.892;2023-04-24T02:57:12;10.90;99.90
33741;DHT22;20065;48.380;10.892;2023-04-24T03:00:01;10.90;99.90
33741;DHT22;20065;48.380;10.892;2023-04-24T03:02:47;11.00;99.90
33741;DHT22;20065;48.380;10.892;2023-04-24T03:05:35;10.90;99.90
33741;DHT22;20065;48.380;10.892;2023-04-24T03:08:21;11.00;99.90
33741;DHT22;20065;48.380;10.892;2023-04-24T03:11:08;11.00;99.90
33741;DHT22;20065;48.380;10.892;2023-04-24T03:13:54;10.90;99.90
33741;DHT22;20065;48.380;10.892;2023-04-24T03:16:40;11.00;99.90
33741;DHT22;20065;48.380;10.892;2023-04-24T03:19:27;11.00;99.90
33741;DHT22;20065;48.380;10.892;2023-04-24T03:22:19;11.10;99.90
33741;DHT22;20065;48.380;10.892;2023-04-24T03:25:06;11.10;99.90
33741;DHT22;20065;48.380;10.892;2023-04-24T03:27:54;11.10;99.90
33741;DHT22;20065;48.380;10.892;2023-04-24T03:31:07;11.10;99.90
33741;DHT22;20065;48.380;10.892;2023-04-24T03:33:55;11.10;99.90
33741;DHT22;20065;48.380;10.892;2023-04-24T03:36:41;11.20;99.90
33741;DHT22;20065;48.380;10.892;2023-04-24T03:39:28;11.20;99.90
33741;DHT22;20065;48.380;10.892;2023-04-24T03:42:15;11.30;99.90
33741;DHT22;20065;48.380;10.892;2023-04-24T03:45:10;11.30;99.90
33741;DHT22;20065;48.380;10.892;2023-04-24T03:47:59;11.40;99.90
33741;DHT22;20065;48.380;10.892;2023-04-24T03:50:45;11.50;99.90
33741;DHT22;20065;48.380;10.892;2023-04-24T03:53:32;11.50;99.90
33741;DHT22;20065;48.380;10.892;2023-04-24T03:56:19;11.60;99.90
33741;DHT22;20065;48.380;10.892;2023-04-24T03:59:06;11.50;99.90
33741;DHT22;20065;48.380;10.892;2023-04-24T04:01:53;11.60;99.90
33741;DHT22;20065;48.380;10.892;2023-04-24T04:04:40;11.70;99.90
33741;DHT22;20065;48.380;10.892;2023-04-24T04:07:26;11.70;99.90
33741;DHT22;20065;48.380;10.892;2023-04-24T04:10:12;11.70;99.90
33741;DHT22;20065;48.380;10.892;2023-04-24T04:12:58;11.70;99.90
33741;DHT22;20065;48.380;10.892;2023-04-24T04:15:46;11.80;99.90
33741;DHT22;20065;48.380;10.892;2023-04-24T04:18:32;11.70;99.90
33741;DHT22;20065;48.380;10.892;2023-04-24T04:21:19;11.60;99.90
33741;DHT22;20065;48.380;10.892;2023-04-24T04:24:06;11.50;99.90
33741;DHT22;20065;48.380;10.892;2023-04-24T04:26:57;11.50;99.90
33741;DHT22;20065;48.380;10.892;2023-04-24T04:29:48;11.40;99.90
33741;DHT22;20065;48.380;10.892;2023-04-24T04:32:35;11.30;99.90
33741;DHT22;20065;48.380;10.892;2023-04-24T04:35:23;11.20;99.90
33741;DHT22;20065;48.380;10.892;2023-04-24T04:38:15;11.10;99.90
33741;DHT22;20065;48.380;10.892;2023-04-24T04:41:18;11.40;99.90
33741;DHT22;20065;48.380;10.892;2023-04-24T04:44:06;11.00;99.90
33741;DHT22;20065;48.380;10.892;2023-04-24T04:46:54;11.00;99.90
33741;DHT22;20065;48.380;10.892;2023-04-24T04:49:50;10.90;99.90
33741;DHT22;20065;48.380;10.892;2023-04-24T04:52:43;10.90;99.90
33741;DHT22;20065;48.380;10.892;2023-04-24T04:55:45;10.90;99.90
33741;DHT22;20065;48.380;10.892;2023-04-24T04:58:36;10.80;99.90
33741;DHT22;20065;48.380;10.892;2023-04-24T05:01:25;10.90;99.90
33741;DHT22;20065;48.380;10.892;2023-04-24T05:04:14;10.90;99.90
33741;DHT22;20065;48.380;10.892;2023-04-24T05:07:01;10.90;99.90
33741;DHT22;20065;48.380;10.892;2023-04-24T05:09:50;10.90;99.90
33741;DHT22;20065;48.380;10.892;2023-04-24T05:12:38;11.00;99.90
33741;DHT22;20065;48.380;10.892;2023-04-24T05:15:26;11.00;99.90
33741;DHT22;20065;48.380;10.892;2023-04-24T05:18:12;11.00;99.90
33741;DHT22;20065;48.380;10.892;2023-04-24T05:20:58;11.10;99.90
33741;DHT22;20065;48.380;10.892;2023-04-24T05:23:45;11.10;99.90
33741;DHT22;20065;48.380;10.892;2023-04-24T05:26:34;11.00;99.90
33741;DHT22;20065;48.380;10.892;2023-04-24T05:29:21;11.00;99.90
33741;DHT22;20065;48.380;10.892;2023-04-24T05:32:08;11.00;99.90
33741;DHT22;20065;48.380;10.892;2023-04-24T05:34:54;11.00;99.90
33741;DHT22;20065;48.380;10.892;2023-04-24T05:37:41;10.90;99.90
33741;DHT22;20065;48.380;10.892;2023-04-24T05:40:28;10.90;99.90
33741;DHT22;20065;48.380;10.892;2023-04-24T05:43:14;10.90;99.90
33741;DHT22;20065;48.380;10.892;2023-04-24T05:46:00;11.00;99.90
33741;DHT22;20065;48.380;10.892;2023-04-24T05:48:47;11.10;99.90
33741;DHT22;20065;48.380;10.892;2023-04-24T05:51:33;11.10;99.90
33741;DHT22;20065;48.380;10.892;2023-04-24T05:54:19;11.00;99.90
33741;DHT22;20065;48.380;10.892;2023-04-24T05:57:05;10.90;99.90
33741;DHT22;20065;48.380;10.892;2023-04-24T06:00:24;10.90;99.90
33741;DHT22;20065;48.380;10.892;2023-04-24T06:03:18;10.90;99.90
33741;DHT22;20065;48.380;10.892;2023-04-24T06:06:07;10.80;99.90
33741;DHT22;20065;48.380;10.892;2023-04-24T06:08:55;10.80;99.90
33741;DHT22;20065;48.380;10.892;2023-04-24T06:11:41;10.70;99.90
33741;DHT22;20065;48.380;10.892;2023-04-24T06:14:30;10.70;99.90
33741;DHT22;20065;48.380;10.892;2023-04-24T06:17:49;10.70;99.90
33741;DHT22;20065;48.380;10.892;2023-04-24T06:20:37;10.80;99.90
33741;DHT22;20065;48.380;10.892;2023-04-24T06:23:23;10.70;99.90
33741;DHT22;20065;48.380;10.892;2023-04-24T06:26:09;10.80;99.90
33741;DHT22;20065;48.380;10.892;2023-04-24T06:28:55;10.80;99.90
33741;DHT22;20065;48.380;10.892;2023-04-24T06:31:42;10.80;99.90
33741;DHT22;20065;48.380;10.892;2023-04-24T06:34:30;10.80;99.90
33741;DHT22;20065;48.380;10.892;2023-04-24T06:37:16;10.80;99.90
33741;DHT22;20065;48.380;10.892;2023-04-24T06:40:03;10.90;99.90
33741;DHT22;20065;48.380;10.892;2023-04-24T06:42:49;10.80;99.90
33741;DHT22;20065;48.380;10.892;2023-04-24T06:45:35;10.80;99.90
33741;DHT22;20065;48.380;10.892;2023-04-24T06:48:22;10.80;99.90
33741;DHT22;20065;48.380;10.892;2023-04-24T06:51:08;10.90;99.90
33741;DHT22;20065;48.380;10.892;2023-04-24T06:53:55;10.90;99.90
33741;DHT22;20065;48.380;10.892;2023-04-24T06:56:43;10.80;99.90
33741;DHT22;20065;48.380;10.892;2023-04-24T06:59:32;10.80;99.90
33741;DHT22;20065;48.380;10.892;2023-04-24T07:02:18;10.80;99.90
33741;DHT22;20065;48.380;10.892;2023-04-24T07:05:05;10.80;99.90
33741;DHT22;20065;48.380;10.892;2023-04-24T07:07:51;10.90;99.90
33741;DHT22;20065;48.380;10.892;2023-04-24T07:10:37;10.90;99.90
33741;DHT22;20065;48.380;10.892;2023-04-24T07:13:24;10.80;99.90
33741;DHT22;20065;48.380;10.892;2023-04-24T07:16:13;10.80;99.90
33741;DHT22;20065;48.380;10.892;2023-04-24T07:18:59;10.80;99.90
33741;DHT22;20065;48.380;10.892;2023-04-24T07:21:46;10.80;99.90
33741;DHT22;20065;48.380;10.892;2023-04-24T07:24:32;10.80;99.90
33741;DHT22;20065;48.380;10.892;2023-04-24T07:27:18;10.80;99.90
33741;DHT22;20065;48.380;10.892;2023-04-24T07:30:05;10.80;99.90
33741;DHT22;20065;48.380;10.892;2023-04-24T07:32:52;10.80;99.90
33741;DHT22;20065;48.380;10.892;2023-04-24T07:35:39;10.70;99.90
33741;DHT22;20065;48.380;10.892;2023-04-24T07:38:25;10.70;99.90
33741;DHT22;20065;48.380;10.892;2023-04-24T07:41:15;10.70;99.90
33741;DHT22;20065;48.380;10.892;2023-04-24T07:44:01;10.70;99.90
33741;DHT22;20065;48.380;10.892;2023-04-24T07:46:47;10.80;99.90
33741;DHT22;20065;48.380;10.892;2023-04-24T07:49:33;10.80;99.90
33741;DHT22;20065;48.380;10.892;2023-04-24T07:52:20;10.80;99.90
33741;DHT22;20065;48.380;10.892;2023-04-24T07:55:07;10.80;99.90
33741;DHT22;20065;48.380;10.892;2023-04-24T07:57:54;10.80;99.90
33741;DHT22;20065;48.380;10.892;2023-04-24T08:00:40;11.70;99.90
33741;DHT22;20065;48.380;10.892;2023-04-24T08:03:27;10.60;99.90
33741;DHT22;20065;48.380;10.892;2023-04-24T08:06:13;10.60;99.90
33741;DHT22;20065;48.380;10.892;2023-04-24T08:09:00;10.60;99.90
33741;DHT22;20065;48.380;10.892;2023-04-24T08:11:46;10.60;99.90
33741;DHT22;20065;48.380;10.892;2023-04-24T08:14:32;10.60;99.90
33741;DHT22;20065;48.380;10.892;2023-04-24T08:17:18;10.60;99.90
33741;DHT22;20065;48.380;10.892;2023-04-24T08:20:05;10.60;99.90
33741;DHT22;20065;48.380;10.892;2023-04-24T08:22:51;10.60;99.90
33741;DHT22;20065;48.380;10.892;2023-04-24T08:25:37;10.60;99.90
33741;DHT22;20065;48.380;10.892;2023-04-24T08:28:24;10.70;99.90
33741;DHT22;20065;48.380;10.892;2023-04-24T08:31:10;10.80;99.90
33741;DHT22;20065;48.380;10.892;2023-04-24T08:33:56;10.90;99.90
33741;DHT22;20065;48.380;10.892;2023-04-24T08:36:43;11.10;99.90
33741;DHT22;20065;48.380;10.892;2023-04-24T08:39:29;11.20;99.90
33741;DHT22;20065;48.380;10.892;2023-04-24T08:42:16;11.30;99.90
33741;DHT22;20065;48.380;10.892;2023-04-24T08:45:03;11.40;99.90
33741;DHT22;20065;48.380;10.892;2023-04-24T08:47:50;11.30;99.90
33741;DHT22;20065;48.380;10.892;2023-04-24T08:50:40;11.30;99.90
33741;DHT22;20065;48.380;10.892;2023-04-24T08:53:28;11.40;99.90
33741;DHT22;20065;48.380;10.892;2023-04-24T08:56:15;11.40;99.90
33741;DHT22;20065;48.380;10.892;2023-04-24T08:59:02;11.40;99.90
33741;DHT22;20065;48.380;10.892;2023-04-24T09:01:50;11.30;99.90
33741;DHT22;20065;48.380;10.892;2023-04-24T09:04:38;11.20;99.90
33741;DHT22;20065;48.380;10.892;2023-04-24T09:07:27;11.20;99.90
33741;DHT22;20065;48.380;10.892;2023-04-24T09:10:16;11.30;99.90
33741;DHT22;20065;48.380;10.892;2023-04-24T09:13:02;11.40;99.90
33741;DHT22;20065;48.380;10.892;2023-04-24T09:15:48;11.50;99.90
33741;DHT22;20065;48.380;10.892;2023-04-24T09:18:35;11.50;99.90
33741;DHT22;20065;48.380;10.892;2023-04-24T09:21:22;11.60;99.90
33741;DHT22;20065;48.380;10.892;2023-04-24T09:24:16;11.80;99.90
33741;DHT22;20065;48.380;10.892;2023-04-24T09:27:04;11.80;99.90
33741;DHT22;20065;48.380;10.892;2023-04-24T09:29:57;11.80;99.90
33741;DHT22;20065;48.380;10.892;2023-04-24T09:32:43;11.80;99.90
33741;DHT22;20065;48.380;10.892;2023-04-24T09:35:32;11.90;99.90
33741;DHT22;20065;48.380;10.892;2023-04-24T09:38:18;12.10;99.90
33741;DHT22;20065;48.380;10.892;2023-04-24T09:41:08;12.10;99.90
33741;DHT22;20065;48.380;10.892;2023-04-24T09:44:34;12.10;99.90
33741;DHT22;20065;48.380;10.892;2023-04-24T09:47:20;11.90;99.90
33741;DHT22;20065;48.380;10.892;2023-04-24T09:50:12;11.90;99.90
33741;DHT22;20065;48.380;10.892;2023-04-24T09:53:02;12.00;99.90
33741;DHT22;20065;48.380;10.892;2023-04-24T09:55:48;12.10;99.90
33741;DHT22;20065;48.380;10.892;2023-04-24T09:58:36;12.20;99.90
33741;DHT22;20065;48.380;10.892;2023-04-24T10:01:35;12.10;99.90
33741;DHT22;20065;48.380;10.892;2023-04-24T10:04:26;12.10;99.90
33741;DHT22;20065;48.380;10.892;2023-04-24T10:07:14;12.20;99.90
33741;DHT22;20065;48.380;10.892;2023-04-24T10:10:01;12.30;99.90
33741;DHT22;20065;48.380;10.892;2023-04-24T10:12:47;12.30;99.90
33741;DHT22;20065;48.380;10.892;2023-04-24T10:15:34;12.00;99.90
33741;DHT22;20065;48.380;10.892;2023-04-24T10:18:21;11.40;99.90
33741;DHT22;20065;48.380;10.892;2023-04-24T10:21:07;11.20;99.90
33741;DHT22;20065;48.380;10.892;2023-04-24T10:23:53;11.10;99.90
33741;DHT22;20065;48.380;10.892;2023-04-24T10:26:41;11.00;99.90
33741;DHT22;20065;48.380;10.892;2023-04-24T10:29:28;10.80;99.90
33741;DHT22;20065;48.380;10.892;2023-04-24T10:32:16;10.90;99.90
33741;DHT22;20065;48.380;10.892;2023-04-24T10:35:02;10.80;99.90
33741;DHT22;20065;48.380;10.892;2023-04-24T10:37:51;10.60;99.90
33741;DHT22;20065;48.380;10.892;2023-04-24T10:40:41;10.50;99.90
33741;DHT22;20065;48.380;10.892;2023-04-24T10:43:33;10.30;99.90
33741;DHT22;20065;48.380;10.892;2023-04-24T10:46:23;10.30;99.90
33741;DHT22;20065;48.380;10.892;2023-04-24T10:49:14;10.30;99.90
33741;DHT22;20065;48.380;10.892;2023-04-24T10:52:05;10.40;99.90
33741;DHT22;20065;48.380;10.892;2023-04-24T10:54:54;10.50;99.90
33741;DHT22;20065;48.380;10.892;2023-04-24T10:58:04;10.50;99.90
33741;DHT22;20065;48.380;10.892;2023-04-24T11:01:00;10.70;99.90
33741;DHT22;20065;48.380;10.892;2023-04-24T11:03:53;10.90;99.90
33741;DHT22;20065;48.380;10.892;2023-04-24T11:06:46;11.20;99.90
33741;DHT22;20065;48.380;10.892;2023-04-24T11:09:33;11.60;99.90
33741;DHT22;20065;48.380;10.892;2023-04-24T11:12:20;11.80;99.90
33741;DHT22;20065;48.380;10.892;2023-04-24T11:15:10;12.00;99.90
33741;DHT22;20065;48.380;10.892;2023-04-24T11:17:57;12.10;99.90
33741;DHT22;20065;48.380;10.892;2023-04-24T11:20:44;12.10;99.90
33741;DHT22;20065;48.380;10.892;2023-04-24T11:23:36;12.00;99.90
33741;DHT22;20065;48.380;10.892;2023-04-24T11:26:23;12.20;99.90
33741;DHT22;20065;48.380;10.892;2023-04-24T11:29:19;12.50;99.90
33741;DHT22;20065;48.380;10.892;2023-04-24T11:32:26;12.70;99.90
33741;DHT22;20065;48.380;10.892;2023-04-24T11:35:21;12.90;99.90
33741;DHT22;20065;48.380;10.892;2023-04-24T11:38:10;12.90;99.90
33741;DHT22;20065;48.380;10.892;2023-04-24T11:40:56;13.10;99.90
33741;DHT22;20065;48.380;10.892;2023-04-24T11:43:44;13.30;99.90
33741;DHT22;20065;48.380;10.892;2023-04-24T11:46:32;13.40;99.90
33741;DHT22;20065;48.380;10.892;2023-04-24T11:49:18;13.30;99.90
33741;DHT22;20065;48.380;10.892;2023-04-24T11:52:07;13.20;99.90
33741;DHT22;20065;48.380;10.892;2023-04-24T11:54:53;13.10;99.90
33741;DHT22;20065;48.380;10.892;2023-04-24T11:57:43;13.00;99.90
33741;DHT22;20065;48.380;10.892;2023-04-24T12:00:31;12.90;99.90
33741;DHT22;20065;48.380;10.892;2023-04-24T12:03:20;12.80;99.90
33741;DHT22;20065;48.380;10.892;2023-04-24T12:06:10;12.80;99.90
33741;DHT22;20065;48.380;10.892;2023-04-24T12:08:57;12.90;99.90
33741;DHT22;20065;48.380;10.892;2023-04-24T12:11:56;13.20;99.90
33741;DHT22;20065;48.380;10.892;2023-04-24T12:15:09;13.20;99.90
33741;DHT22;20065;48.380;10.892;2023-04-24T12:17:56;13.30;99.90
33741;DHT22;20065;48.380;10.892;2023-04-24T12:20:44;13.50;99.90
33741;DHT22;20065;48.380;10.892;2023-04-24T12:23:43;13.50;99.90
33741;DHT22;20065;48.380;10.892;2023-04-24T12:26:29;13.30;99.90
33741;DHT22;20065;48.380;10.892;2023-04-24T12:29:20;13.30;99.90
33741;DHT22;20065;48.380;10.892;2023-04-24T12:32:16;13.40;99.90
33741;DHT22;20065;48.380;10.892;2023-04-24T12:35:04;13.50;99.90
33741;DHT22;20065;48.380;10.892;2023-04-24T12:37:51;13.80;99.90
33741;DHT22;20065;48.380;10.892;2023-04-24T12:40:38;13.90;99.90
33741;DHT22;20065;48.380;10.892;2023-04-24T12:43:24;14.10;99.90
33741;DHT22;20065;48.380;10.892;2023-04-24T12:46:10;14.20;99.90
33741;DHT22;20065;48.380;10.892;2023-04-24T12:48:57;14.10;99.90
33741;DHT22;20065;48.380;10.892;2023-04-24T12:51:44;13.90;99.90
33741;DHT22;20065;48.380;10.892;2023-04-24T12:54:34;13.60;99.90
33741;DHT22;20065;48.380;10.892;2023-04-24T12:57:20;13.70;99.90
33741;DHT22;20065;48.380;10.892;2023-04-24T13:00:08;13.60;99.90
33741;DHT22;20065;48.380;10.892;2023-04-24T13:02:55;13.50;99.90
33741;DHT22;20065;48.380;10.892;2023-04-24T13:05:42;13.40;99.90
33741;DHT22;20065;48.380;10.892;2023-04-24T13:08:28;13.20;99.90
33741;DHT22;20065;48.380;10.892;2023-04-24T13:11:14;13.10;99.90
33741;DHT22;20065;48.380;10.892;2023-04-24T13:14:01;13.20;99.90
33741;DHT22;20065;48.380;10.892;2023-04-24T13:16:47;13.30;99.90
33741;DHT22;20065;48.380;10.892;2023-04-24T13:19:40;13.40;99.90
33741;DHT22;20065;48.380;10.892;2023-04-24T13:22:26;13.60;99.90
33741;DHT22;20065;48.380;10.892;2023-04-24T13:25:13;13.70;99.90
33741;DHT22;20065;48.380;10.892;2023-04-24T13:28:02;13.90;99.90
33741;DHT22;20065;48.380;10.892;2023-04-24T13:30:49;13.90;99.90
33741;DHT22;20065;48.380;10.892;2023-04-24T13:33:35;13.80;99.90
33741;DHT22;20065;48.380;10.892;2023-04-24T13:36:21;13.90;99.90
33741;DHT22;20065;48.380;10.892;2023-04-24T13:39:08;14.00;99.90
33741;DHT22;20065;48.380;10.892;2023-04-24T13:41:54;14.00;99.90
33741;DHT22;20065;48.380;10.892;2023-04-24T13:44:41;14.10;99.90
33741;DHT22;20065;48.380;10.892;2023-04-24T13:47:28;14.00;99.90
33741;DHT22;20065;48.380;10.892;2023-04-24T13:50:15;13.80;99.90
33741;DHT22;20065;48.380;10.892;2023-04-24T13:53:02;13.50;99.90
33741;DHT22;20065;48.380;10.892;2023-04-24T13:55:48;13.30;99.90
33741;DHT22;20065;48.380;10.892;2023-04-24T13:58:35;13.40;99.90
33741;DHT22;20065;48.380;10.892;2023-04-24T14:01:23;13.40;99.90
33741;DHT22;20065;48.380;10.892;2023-04-24T14:04:12;13.50;99.90
33741;DHT22;20065;48.380;10.892;2023-04-24T14:06:59;13.70;99.90
33741;DHT22;20065;48.380;10.892;2023-04-24T14:09:46;13.80;99.90
33741;DHT22;20065;48.380;10.892;2023-04-24T14:12:32;13.90;99.90
33741;DHT22;20065;48.380;10.892;2023-04-24T14:15:18;13.90;99.90
33741;DHT22;20065;48.380;10.892;2023-04-24T14:18:05;13.90;99.90
33741;DHT22;20065;48.380;10.892;2023-04-24T14:20:51;13.60;99.90
33741;DHT22;20065;48.380;10.892;2023-04-24T14:23:37;13.50;99.90
33741;DHT22;20065;48.380;10.892;2023-04-24T14:26:26;13.30;99.90
33741;DHT22;20065;48.380;10.892;2023-04-24T14:29:12;13.40;99.90
33741;DHT22;20065;48.380;10.892;2023-04-24T14:31:58;13.60;99.90
33741;DHT22;20065;48.380;10.892;2023-04-24T14:34:44;13.80;99.90
33741;DHT22;20065;48.380;10.892;2023-04-24T14:37:32;13.70;99.90
33741;DHT22;20065;48.380;10.892;2023-04-24T14:40:18;13.70;99.90
33741;DHT22;20065;48.380;10.892;2023-04-24T14:43:04;13.80;99.90
33741;DHT22;20065;48.380;10.892;2023-04-24T14:45:51;13.90;99.90
33741;DHT22;20065;48.380;10.892;2023-04-24T14:48:37;14.00;99.90
33741;DHT22;20065;48.380;10.892;2023-04-24T14:51:24;13.90;99.90
33741;DHT22;20065;48.380;10.892;2023-04-24T14:54:11;13.90;99.90
33741;DHT22;20065;48.380;10.892;2023-04-24T14:56:57;13.90;99.90
33741;DHT22;20065;48.380;10.892;2023-04-24T14:59:44;13.90;99.90
33741;DHT22;20065;48.380;10.892;2023-04-24T15:02:35;13.80;99.90
33741;DHT22;20065;48.380;10.892;2023-04-24T15:05:25;13.90;99.90
33741;DHT22;20065;48.380;10.892;2023-04-24T15:08:11;13.90;99.90
33741;DHT22;20065;48.380;10.892;2023-04-24T15:10:58;14.00;99.90
33741;DHT22;20065;48.380;10.892;2023-04-24T15:13:44;13.80;99.90
33741;DHT22;20065;48.380;10.892;2023-04-24T15:16:36;13.70;99.90
33741;DHT22;20065;48.380;10.892;2023-04-24T15:19:23;13.60;99.90
33741;DHT22;20065;48.380;10.892;2023-04-24T15:22:10;13.50;99.90
33741;DHT22;20065;48.380;10.892;2023-04-24T15:24:56;13.40;99.90
33741;DHT22;20065;48.380;10.892;2023-04-24T15:27:46;13.20;99.90
33741;DHT22;20065;48.380;10.892;2023-04-24T15:30:32;13.20;99.90
33741;DHT22;20065;48.380;10.892;2023-04-24T15:33:18;13.10;99.90
33741;DHT22;20065;48.380;10.892;2023-04-24T15:36:05;13.00;99.90
33741;DHT22;20065;48.380;10.892;2023-04-24T15:38:52;13.00;99.90
33741;DHT22;20065;48.380;10.892;2023-04-24T15:41:38;13.20;99.90
33741;DHT22;20065;48.380;10.892;2023-04-24T15:44:25;13.30;99.90
33741;DHT22;20065;48.380;10.892;2023-04-24T15:47:11;13.20;99.90
33741;DHT22;20065;48.380;10.892;2023-04-24T15:49:59;13.30;99.90
33741;DHT22;20065;48.380;10.892;2023-04-24T15:52:46;13.40;99.90
33741;DHT22;20065;48.380;10.892;2023-04-24T15:55:32;13.40;99.80
33741;DHT22;20065;48.380;10.892;2023-04-24T15:58:37;13.40;99.90
33741;DHT22;20065;48.380;10.892;2023-04-24T16:01:24;13.40;99.70
33741;DHT22;20065;48.380;10.892;2023-04-24T16:04:13;13.30;99.60
33741;DHT22;20065;48.380;10.892;2023-04-24T16:07:00;13.00;99.10
33741;DHT22;20065;48.380;10.892;2023-04-24T16:09:47;13.10;99.90
33741;DHT22;20065;48.380;10.892;2023-04-24T16:12:34;13.10;99.80
33741;DHT22;20065;48.380;10.892;2023-04-24T16:15:20;13.10;99.90
33741;DHT22;20065;48.380;10.892;2023-04-24T16:18:07;13.00;99.90
33741;DHT22;20065;48.380;10.892;2023-04-24T16:20:53;13.00;99.70
33741;DHT22;20065;48.380;10.892;2023-04-24T16:23:41;13.00;99.90
33741;DHT22;20065;48.380;10.892;2023-04-24T16:26:27;13.20;99.90
33741;DHT22;20065;48.380;10.892;2023-04-24T16:29:13;13.10;99.70
33741;DHT22;20065;48.380;10.892;2023-04-24T16:32:00;13.20;99.90
33741;DHT22;20065;48.380;10.892;2023-04-24T16:34:46;13.10;99.90
33741;DHT22;20065;48.380;10.892;2023-04-24T16:37:33;13.10;99.90
33741;DHT22;20065;48.380;10.892;2023-04-24T16:40:22;12.70;99.90
33741;DHT22;20065;48.380;10.892;2023-04-24T16:43:18;13.10;99.90
33741;DHT22;20065;48.380;10.892;2023-04-24T16:46:09;13.40;99.90
33741;DHT22;20065;48.380;10.892;2023-04-24T16:48:56;13.30;99.90
33741;DHT22;20065;48.380;10.892;2023-04-24T16:51:43;13.40;99.90
33741;DHT22;20065;48.380;10.892;2023-04-24T16:54:29;13.40;99.90
33741;DHT22;20065;48.380;10.892;2023-04-24T16:57:15;13.30;99.90
33741;DHT22;20065;48.380;10.892;2023-04-24T17:00:02;13.10;99.90
33741;DHT22;20065;48.380;10.892;2023-04-24T17:02:49;13.10;99.90
33741;DHT22;20065;48.380;10.892;2023-04-24T17:05:35;13.10;99.90
33741;DHT22;20065;48.380;10.892;2023-04-24T17:08:21;12.90;99.90
33741;DHT22;20065;48.380;10.892;2023-04-24T17:11:08;12.80;99.90
33741;DHT22;20065;48.380;10.892;2023-04-24T17:13:57;13.50;99.90
33741;DHT22;20065;48.380;10.892;2023-04-24T17:16:47;12.60;99.90
33741;DHT22;20065;48.380;10.892;2023-04-24T17:19:34;12.50;99.90
33741;DHT22;20065;48.380;10.892;2023-04-24T17:22:20;12.60;99.90
33741;DHT22;20065;48.380;10.892;2023-04-24T17:25:06;12.60;99.90